Aérodrome :
LOGIN :

S'inscrire | Disclaimer

   EN    FR    IT 

 










Légende :    VFR   VFR Marginal   IFR   IFR Intensif   IFR Très Intensif
Visi : 
Plafond : 
>= 8 km
>= 3000ft
5 à 8 km
1000 à 3000 ft
1500m à 5 km
500 à 1000 ft
800 à 1500m
200 à 500 ft
< 800m
< 200 ft
Symboles :   Orages  Brouillard  Fortes neiges  Fortes précipitations  Vent > 20 kt
SIGMETs :   Divers  Orages  Givrage  Turbulence  Onde Orograph.  Cendres Volcan.






- Altitude de l'aérodrome : 300 ft
- Code IATA : MLA


LMML - Malta Luqa

DERNIER METAR :
  • 040845Z 03011KT 9999 SCT010 SCT027 13/12 Q1012 NOSIG

METARs EXPIRÉS :
  • 040815Z 03010KT 9999 BKN008 12/12 Q1011 NOSIG
  • 040715Z 36008KT 330V030 6000 -RA BKN006 12/12 Q1011 NOSIG
  • 040645Z 01008KT 5000 -RA SCT005 12/12 Q1010 NOSIG
  • 040615Z 03007KT 5000 -RA SCT004 12/12 Q1010 NOSIG

TAF TAF LMML
Valide du 04 à 06h jusqu'au 05 à 06h UTC


040500Z 0406/0506 36014KT 9999 BKN008
TEMPO 0406/0408 7000 RA BKN004
PROB30 0406/0414 VRB20G30KT 4000 TSRAGS BKN012CB
BECMG 0408/0411 SCT020
TEMPO 0408/0415 7000 SHRA BKN012TCU
BECMG 0414/0417 32020G30KT
BECMG 0420/0423 34015KT



MET'MAP, la Météo Aéronautique d'un coup d'oeil ! - Copyright ORBIFLY Décembre 2007 - Disclaimer

ORBIFLY MET'MAP TEAM :

Programmation & Développement : Alexandra Zaïnal
Sur une idée originale de : Baudouin d'Aumeries
Assistance à la programmation : Marc-Olivier Méhu
Soutien technique & logistique : Manuel Goepfert

Contact : metmap@orbifly.com




SOURCES & CREDITS :

   NOAA